Pahala, Hawaii
Current Conditions -  °F | °C
As of 11:56 AM on Thursday 18 Dec 2014 (Local Time) from PHSF Reporting Station
Clear Clear  
Wind Chill: 21°   Ceiling: Unl
Heat Index: 21°   Visibility: 10mi
Dew Point:   Wind: 18mph
Humidity: 43%   Direction: 170°S
Pressure: 30.38"   Gusts: 29mph
Location:  19.2°N, 155.47°W
Report Text: PHSF 182156Z AUTO 17016G25KT 10SM CLR 21/08 A3038 RMK AO2 PK WND 15026/2059 SLP179 T02060076 $
Loading
Personal Weather Stations






























Interactive Weather Map New forecast layout! Learn more

10-Day Weather Forecast

Advertisements
Track Severe Weather on mobile